sensor_id;sensor_type;location;lat;lon;timestamp;P1;durP1;ratioP1;P2;durP2;ratioP2
13951;SDS011;39535;52.192;9.886;2023-01-28T00:01:04;2.87;;;1.63;;
13951;SDS011;39535;52.192;9.886;2023-01-28T00:03:31;1.93;;;0.60;;
13951;SDS011;39535;52.192;9.886;2023-01-28T00:06:00;1.00;;;0.60;;
13951;SDS011;39535;52.192;9.886;2023-01-28T00:08:27;1.37;;;0.70;;
13951;SDS011;39535;52.192;9.886;2023-01-28T00:10:54;1.47;;;0.50;;
13951;SDS011;39535;52.192;9.886;2023-01-28T00:13:23;0.90;;;0.70;;
13951;SDS011;39535;52.192;9.886;2023-01-28T00:15:54;1.20;;;0.70;;
13951;SDS011;39535;52.192;9.886;2023-01-28T00:18:21;1.70;;;0.80;;
13951;SDS011;39535;52.192;9.886;2023-01-28T00:20:54;2.00;;;1.00;;
13951;SDS011;39535;52.192;9.886;2023-01-28T00:23:21;1.17;;;0.70;;
13951;SDS011;39535;52.192;9.886;2023-01-28T00:25:48;0.97;;;0.70;;
13951;SDS011;39535;52.192;9.886;2023-01-28T00:28:14;1.97;;;0.70;;
13951;SDS011;39535;52.192;9.886;2023-01-28T00:30:40;1.47;;;0.73;;
13951;SDS011;39535;52.192;9.886;2023-01-28T00:33:08;0.97;;;0.60;;
13951;SDS011;39535;52.192;9.886;2023-01-28T00:35:34;1.50;;;0.70;;
13951;SDS011;39535;52.192;9.886;2023-01-28T00:38:01;2.03;;;0.60;;
13951;SDS011;39535;52.192;9.886;2023-01-28T00:40:28;1.83;;;0.70;;
13951;SDS011;39535;52.192;9.886;2023-01-28T00:42:54;1.93;;;0.80;;
13951;SDS011;39535;52.192;9.886;2023-01-28T00:45:21;1.57;;;0.70;;
13951;SDS011;39535;52.192;9.886;2023-01-28T00:47:47;1.80;;;0.70;;
13951;SDS011;39535;52.192;9.886;2023-01-28T00:50:15;3.00;;;1.23;;
13951;SDS011;39535;52.192;9.886;2023-01-28T00:52:42;0.70;;;0.70;;
13951;SDS011;39535;52.192;9.886;2023-01-28T00:55:08;1.60;;;0.80;;
13951;SDS011;39535;52.192;9.886;2023-01-28T00:57:35;3.00;;;0.80;;
13951;SDS011;39535;52.192;9.886;2023-01-28T01:00:01;1.77;;;0.60;;
13951;SDS011;39535;52.192;9.886;2023-01-28T01:02:29;0.80;;;0.50;;
13951;SDS011;39535;52.192;9.886;2023-01-28T01:04:56;2.23;;;0.80;;
13951;SDS011;39535;52.192;9.886;2023-01-28T01:07:27;1.87;;;0.80;;
13951;SDS011;39535;52.192;9.886;2023-01-28T01:10:05;2.27;;;0.63;;
13951;SDS011;39535;52.192;9.886;2023-01-28T01:12:33;6.77;;;0.70;;
13951;SDS011;39535;52.192;9.886;2023-01-28T01:15:00;1.23;;;0.60;;
13951;SDS011;39535;52.192;9.886;2023-01-28T01:17:28;1.97;;;0.63;;
13951;SDS011;39535;52.192;9.886;2023-01-28T01:19:55;0.60;;;0.60;;
13951;SDS011;39535;52.192;9.886;2023-01-28T01:22:21;1.93;;;0.60;;
13951;SDS011;39535;52.192;9.886;2023-01-28T01:24:49;2.27;;;0.80;;
13951;SDS011;39535;52.192;9.886;2023-01-28T01:32:52;1.20;;;0.67;;
13951;SDS011;39535;52.192;9.886;2023-01-28T01:35:19;2.30;;;0.60;;
13951;SDS011;39535;52.192;9.886;2023-01-28T01:37:45;0.60;;;0.50;;
13951;SDS011;39535;52.192;9.886;2023-01-28T01:40:13;1.33;;;0.70;;
13951;SDS011;39535;52.192;9.886;2023-01-28T01:42:39;1.50;;;0.70;;
13951;SDS011;39535;52.192;9.886;2023-01-28T01:45:06;1.00;;;0.57;;
13951;SDS011;39535;52.192;9.886;2023-01-28T01:47:39;1.70;;;0.60;;
13951;SDS011;39535;52.192;9.886;2023-01-28T01:50:11;1.13;;;0.73;;
13951;SDS011;39535;52.192;9.886;2023-01-28T01:52:44;2.13;;;0.80;;
13951;SDS011;39535;52.192;9.886;2023-01-28T01:55:16;1.90;;;0.67;;
13951;SDS011;39535;52.192;9.886;2023-01-28T01:57:46;3.90;;;0.70;;
13951;SDS011;39535;52.192;9.886;2023-01-28T02:00:15;1.23;;;0.60;;
13951;SDS011;39535;52.192;9.886;2023-01-28T02:02:43;0.90;;;0.70;;
13951;SDS011;39535;52.192;9.886;2023-01-28T02:05:13;1.37;;;0.80;;
13951;SDS011;39535;52.192;9.886;2023-01-28T02:07:40;1.40;;;0.60;;
13951;SDS011;39535;52.192;9.886;2023-01-28T02:10:10;1.07;;;0.80;;
13951;SDS011;39535;52.192;9.886;2023-01-28T02:12:39;3.30;;;1.07;;
13951;SDS011;39535;52.192;9.886;2023-01-28T02:15:09;1.67;;;0.70;;
13951;SDS011;39535;52.192;9.886;2023-01-28T02:17:38;1.23;;;0.80;;
13951;SDS011;39535;52.192;9.886;2023-01-28T02:20:05;2.50;;;0.87;;
13951;SDS011;39535;52.192;9.886;2023-01-28T02:22:39;0.70;;;0.70;;
13951;SDS011;39535;52.192;9.886;2023-01-28T02:25:39;0.90;;;0.67;;
13951;SDS011;39535;52.192;9.886;2023-01-28T02:28:26;2.90;;;0.97;;
13951;SDS011;39535;52.192;9.886;2023-01-28T02:31:00;0.90;;;0.50;;
13951;SDS011;39535;52.192;9.886;2023-01-28T02:33:34;1.13;;;0.70;;
13951;SDS011;39535;52.192;9.886;2023-01-28T02:36:08;1.17;;;0.70;;
13951;SDS011;39535;52.192;9.886;2023-01-28T02:38:44;3.00;;;0.77;;
13951;SDS011;39535;52.192;9.886;2023-01-28T02:41:13;4.27;;;0.67;;
13951;SDS011;39535;52.192;9.886;2023-01-28T02:43:47;2.80;;;0.60;;
13951;SDS011;39535;52.192;9.886;2023-01-28T02:46:16;1.13;;;0.70;;
13951;SDS011;39535;52.192;9.886;2023-01-28T02:49:04;1.93;;;0.80;;
13951;SDS011;39535;52.192;9.886;2023-01-28T02:51:38;0.50;;;0.40;;
13951;SDS011;39535;52.192;9.886;2023-01-28T02:54:13;0.60;;;0.60;;
13951;SDS011;39535;52.192;9.886;2023-01-28T02:56:47;1.83;;;0.70;;
13951;SDS011;39535;52.192;9.886;2023-01-28T02:59:22;1.37;;;0.83;;
13951;SDS011;39535;52.192;9.886;2023-01-28T03:01:59;0.97;;;0.80;;
13951;SDS011;39535;52.192;9.886;2023-01-28T03:04:31;1.03;;;0.53;;
13951;SDS011;39535;52.192;9.886;2023-01-28T03:07:02;0.80;;;0.80;;
13951;SDS011;39535;52.192;9.886;2023-01-28T03:09:32;1.27;;;0.67;;
13951;SDS011;39535;52.192;9.886;2023-01-28T03:11:59;1.93;;;0.70;;
13951;SDS011;39535;52.192;9.886;2023-01-28T03:14:50;1.13;;;0.60;;
13951;SDS011;39535;52.192;9.886;2023-01-28T03:17:38;1.63;;;0.70;;
13951;SDS011;39535;52.192;9.886;2023-01-28T03:20:28;1.47;;;0.60;;
13951;SDS011;39535;52.192;9.886;2023-01-28T03:23:19;1.73;;;0.60;;
13951;SDS011;39535;52.192;9.886;2023-01-28T03:26:05;1.23;;;0.63;;
13951;SDS011;39535;52.192;9.886;2023-01-28T03:28:51;1.40;;;0.80;;
13951;SDS011;39535;52.192;9.886;2023-01-28T03:31:41;0.80;;;0.50;;
13951;SDS011;39535;52.192;9.886;2023-01-28T03:34:26;0.70;;;0.60;;
13951;SDS011;39535;52.192;9.886;2023-01-28T03:37:10;1.33;;;0.70;;
13951;SDS011;39535;52.192;9.886;2023-01-28T03:39:39;1.03;;;0.73;;
13951;SDS011;39535;52.192;9.886;2023-01-28T03:42:06;0.97;;;0.70;;
13951;SDS011;39535;52.192;9.886;2023-01-28T03:44:35;1.73;;;0.77;;
13951;SDS011;39535;52.192;9.886;2023-01-28T03:47:15;1.23;;;0.93;;
13951;SDS011;39535;52.192;9.886;2023-01-28T03:49:43;0.50;;;0.50;;
13951;SDS011;39535;52.192;9.886;2023-01-28T03:52:13;1.50;;;0.80;;
13951;SDS011;39535;52.192;9.886;2023-01-28T03:54:40;1.17;;;0.70;;
13951;SDS011;39535;52.192;9.886;2023-01-28T03:57:06;1.00;;;0.70;;
13951;SDS011;39535;52.192;9.886;2023-01-28T03:59:33;0.70;;;0.70;;
13951;SDS011;39535;52.192;9.886;2023-01-28T04:01:59;1.23;;;1.00;;
13951;SDS011;39535;52.192;9.886;2023-01-28T04:04:28;3.63;;;0.87;;
13951;SDS011;39535;52.192;9.886;2023-01-28T04:06:56;1.53;;;0.90;;
13951;SDS011;39535;52.192;9.886;2023-01-28T04:09:23;2.50;;;0.70;;
13951;SDS011;39535;52.192;9.886;2023-01-28T04:11:49;1.03;;;0.80;;
13951;SDS011;39535;52.192;9.886;2023-01-28T04:14:16;3.23;;;1.00;;
13951;SDS011;39535;52.192;9.886;2023-01-28T04:16:43;1.07;;;0.60;;
13951;SDS011;39535;52.192;9.886;2023-01-28T04:19:10;0.70;;;0.70;;
13951;SDS011;39535;52.192;9.886;2023-01-28T04:21:39;2.73;;;0.80;;
13951;SDS011;39535;52.192;9.886;2023-01-28T04:24:06;2.97;;;1.00;;
13951;SDS011;39535;52.192;9.886;2023-01-28T04:26:33;1.67;;;0.67;;
13951;SDS011;39535;52.192;9.886;2023-01-28T04:28:59;0.80;;;0.60;;
13951;SDS011;39535;52.192;9.886;2023-01-28T04:31:25;1.53;;;0.53;;
13951;SDS011;39535;52.192;9.886;2023-01-28T04:33:52;0.77;;;0.70;;
13951;SDS011;39535;52.192;9.886;2023-01-28T04:36:18;1.13;;;0.70;;
13951;SDS011;39535;52.192;9.886;2023-01-28T04:38:46;2.17;;;1.03;;
13951;SDS011;39535;52.192;9.886;2023-01-28T04:41:12;2.47;;;1.53;;
13951;SDS011;39535;52.192;9.886;2023-01-28T04:43:39;2.13;;;1.50;;
13951;SDS011;39535;52.192;9.886;2023-01-28T04:46:05;1.37;;;1.13;;
13951;SDS011;39535;52.192;9.886;2023-01-28T04:48:32;1.30;;;0.80;;
13951;SDS011;39535;52.192;9.886;2023-01-28T04:51:00;0.90;;;0.90;;
13951;SDS011;39535;52.192;9.886;2023-01-28T04:53:26;1.60;;;0.90;;
13951;SDS011;39535;52.192;9.886;2023-01-28T04:55:54;1.97;;;0.90;;
13951;SDS011;39535;52.192;9.886;2023-01-28T04:58:21;1.03;;;0.70;;
13951;SDS011;39535;52.192;9.886;2023-01-28T05:00:50;2.00;;;0.90;;
13951;SDS011;39535;52.192;9.886;2023-01-28T05:03:19;2.10;;;1.73;;
13951;SDS011;39535;52.192;9.886;2023-01-28T05:05:45;2.10;;;0.87;;
13951;SDS011;39535;52.192;9.886;2023-01-28T05:08:12;2.40;;;0.80;;
13951;SDS011;39535;52.192;9.886;2023-01-28T05:10:38;1.37;;;0.90;;
13951;SDS011;39535;52.192;9.886;2023-01-28T05:13:06;2.17;;;1.10;;
13951;SDS011;39535;52.192;9.886;2023-01-28T05:15:32;0.70;;;0.70;;
13951;SDS011;39535;52.192;9.886;2023-01-28T05:17:59;1.67;;;0.70;;
13951;SDS011;39535;52.192;9.886;2023-01-28T05:20:25;1.80;;;1.10;;
13951;SDS011;39535;52.192;9.886;2023-01-28T05:22:52;1.23;;;0.90;;
13951;SDS011;39535;52.192;9.886;2023-01-28T05:25:18;2.60;;;0.90;;
13951;SDS011;39535;52.192;9.886;2023-01-28T05:27:48;1.50;;;0.80;;
13951;SDS011;39535;52.192;9.886;2023-01-28T05:30:16;1.30;;;1.20;;
13951;SDS011;39535;52.192;9.886;2023-01-28T05:32:43;2.80;;;0.90;;
13951;SDS011;39535;52.192;9.886;2023-01-28T05:35:09;0.63;;;0.60;;
13951;SDS011;39535;52.192;9.886;2023-01-28T05:37:35;0.80;;;0.60;;
13951;SDS011;39535;52.192;9.886;2023-01-28T05:40:02;1.27;;;0.60;;
13951;SDS011;39535;52.192;9.886;2023-01-28T05:42:28;1.00;;;0.83;;
13951;SDS011;39535;52.192;9.886;2023-01-28T05:44:54;1.33;;;0.90;;
13951;SDS011;39535;52.192;9.886;2023-01-28T05:47:22;1.30;;;0.70;;
13951;SDS011;39535;52.192;9.886;2023-01-28T05:49:48;0.90;;;0.80;;
13951;SDS011;39535;52.192;9.886;2023-01-28T05:52:15;1.60;;;0.63;;
13951;SDS011;39535;52.192;9.886;2023-01-28T05:54:41;1.30;;;0.67;;
13951;SDS011;39535;52.192;9.886;2023-01-28T05:57:08;1.37;;;1.00;;
13951;SDS011;39535;52.192;9.886;2023-01-28T05:59:35;1.30;;;0.63;;
13951;SDS011;39535;52.192;9.886;2023-01-28T06:02:01;1.17;;;0.90;;
13951;SDS011;39535;52.192;9.886;2023-01-28T06:04:28;1.50;;;0.80;;
13951;SDS011;39535;52.192;9.886;2023-01-28T06:06:55;0.70;;;0.70;;
13951;SDS011;39535;52.192;9.886;2023-01-28T06:09:21;0.80;;;0.70;;
13951;SDS011;39535;52.192;9.886;2023-01-28T06:11:47;1.10;;;0.63;;
13951;SDS011;39535;52.192;9.886;2023-01-28T06:14:14;1.10;;;0.80;;
13951;SDS011;39535;52.192;9.886;2023-01-28T06:16:41;0.83;;;0.70;;
13951;SDS011;39535;52.192;9.886;2023-01-28T06:19:07;1.13;;;0.93;;
13951;SDS011;39535;52.192;9.886;2023-01-28T06:21:35;0.70;;;0.70;;
13951;SDS011;39535;52.192;9.886;2023-01-28T06:24:01;0.80;;;0.77;;
13951;SDS011;39535;52.192;9.886;2023-01-28T06:26:28;2.87;;;1.10;;
13951;SDS011;39535;52.192;9.886;2023-01-28T06:28:54;0.63;;;0.60;;
13951;SDS011;39535;52.192;9.886;2023-01-28T06:31:21;0.97;;;0.97;;
13951;SDS011;39535;52.192;9.886;2023-01-28T06:33:47;0.80;;;0.80;;
13951;SDS011;39535;52.192;9.886;2023-01-28T06:36:13;2.70;;;0.83;;
13951;SDS011;39535;52.192;9.886;2023-01-28T06:38:41;0.87;;;0.80;;
13951;SDS011;39535;52.192;9.886;2023-01-28T06:41:07;0.90;;;0.63;;
13951;SDS011;39535;52.192;9.886;2023-01-28T06:43:34;4.93;;;0.77;;
13951;SDS011;39535;52.192;9.886;2023-01-28T06:46:00;1.27;;;0.80;;
13951;SDS011;39535;52.192;9.886;2023-01-28T06:48:27;1.47;;;0.90;;
13951;SDS011;39535;52.192;9.886;2023-01-28T06:50:53;1.10;;;0.90;;
13951;SDS011;39535;52.192;9.886;2023-01-28T06:53:20;2.30;;;0.90;;
13951;SDS011;39535;52.192;9.886;2023-01-28T06:55:48;1.07;;;0.80;;
13951;SDS011;39535;52.192;9.886;2023-01-28T06:58:14;2.23;;;1.10;;
13951;SDS011;39535;52.192;9.886;2023-01-28T07:00:41;1.13;;;1.00;;
13951;SDS011;39535;52.192;9.886;2023-01-28T07:03:07;1.43;;;1.00;;
13951;SDS011;39535;52.192;9.886;2023-01-28T07:05:34;2.43;;;0.80;;
13951;SDS011;39535;52.192;9.886;2023-01-28T07:08:00;4.03;;;1.40;;
13951;SDS011;39535;52.192;9.886;2023-01-28T07:10:27;2.17;;;1.60;;
13951;SDS011;39535;52.192;9.886;2023-01-28T07:12:55;1.40;;;1.10;;
13951;SDS011;39535;52.192;9.886;2023-01-28T07:15:21;1.77;;;1.23;;
13951;SDS011;39535;52.192;9.886;2023-01-28T07:17:48;2.23;;;1.30;;
13951;SDS011;39535;52.192;9.886;2023-01-28T07:20:14;3.90;;;1.67;;
13951;SDS011;39535;52.192;9.886;2023-01-28T07:22:41;2.13;;;1.83;;
13951;SDS011;39535;52.192;9.886;2023-01-28T07:25:10;2.93;;;2.20;;
13951;SDS011;39535;52.192;9.886;2023-01-28T07:27:37;5.63;;;2.70;;
13951;SDS011;39535;52.192;9.886;2023-01-28T07:30:05;2.63;;;1.40;;
13951;SDS011;39535;52.192;9.886;2023-01-28T07:32:32;4.73;;;1.40;;
13951;SDS011;39535;52.192;9.886;2023-01-28T07:34:58;3.83;;;2.03;;
13951;SDS011;39535;52.192;9.886;2023-01-28T07:37:25;2.70;;;1.43;;
13951;SDS011;39535;52.192;9.886;2023-01-28T07:39:51;1.23;;;0.93;;
13951;SDS011;39535;52.192;9.886;2023-01-28T07:42:17;1.50;;;1.27;;
13951;SDS011;39535;52.192;9.886;2023-01-28T07:44:44;2.90;;;1.40;;
13951;SDS011;39535;52.192;9.886;2023-01-28T07:47:11;1.43;;;1.33;;
13951;SDS011;39535;52.192;9.886;2023-01-28T07:49:38;2.30;;;1.40;;
13951;SDS011;39535;52.192;9.886;2023-01-28T07:52:04;1.27;;;1.10;;
13951;SDS011;39535;52.192;9.886;2023-01-28T07:54:30;3.50;;;1.00;;
13951;SDS011;39535;52.192;9.886;2023-01-28T07:56:57;1.73;;;1.10;;
13951;SDS011;39535;52.192;9.886;2023-01-28T07:59:23;1.77;;;1.10;;
13951;SDS011;39535;52.192;9.886;2023-01-28T08:01:49;1.50;;;1.00;;
13951;SDS011;39535;52.192;9.886;2023-01-28T08:04:18;3.07;;;1.10;;
13951;SDS011;39535;52.192;9.886;2023-01-28T08:06:44;1.57;;;1.13;;
13951;SDS011;39535;52.192;9.886;2023-01-28T08:09:11;2.00;;;1.07;;
13951;SDS011;39535;52.192;9.886;2023-01-28T08:11:37;3.23;;;1.33;;
13951;SDS011;39535;52.192;9.886;2023-01-28T08:14:04;1.07;;;0.87;;
13951;SDS011;39535;52.192;9.886;2023-01-28T08:16:30;2.00;;;1.00;;
13951;SDS011;39535;52.192;9.886;2023-01-28T08:18:57;1.40;;;1.00;;
13951;SDS011;39535;52.192;9.886;2023-01-28T08:21:24;1.23;;;0.70;;
13951;SDS011;39535;52.192;9.886;2023-01-28T08:23:51;2.20;;;0.80;;
13951;SDS011;39535;52.192;9.886;2023-01-28T08:26:18;1.67;;;0.83;;
13951;SDS011;39535;52.192;9.886;2023-01-28T08:28:44;1.57;;;1.00;;
13951;SDS011;39535;52.192;9.886;2023-01-28T08:31:11;0.83;;;0.83;;
13951;SDS011;39535;52.192;9.886;2023-01-28T08:33:37;2.03;;;1.10;;
13951;SDS011;39535;52.192;9.886;2023-01-28T08:36:04;1.63;;;0.80;;
13951;SDS011;39535;52.192;9.886;2023-01-28T08:38:32;1.70;;;1.20;;
13951;SDS011;39535;52.192;9.886;2023-01-28T08:40:58;0.97;;;0.80;;
13951;SDS011;39535;52.192;9.886;2023-01-28T08:43:25;1.50;;;0.93;;
13951;SDS011;39535;52.192;9.886;2023-01-28T08:45:51;2.07;;;0.87;;
13951;SDS011;39535;52.192;9.886;2023-01-28T08:48:18;2.50;;;0.93;;
13951;SDS011;39535;52.192;9.886;2023-01-28T08:50:44;1.20;;;1.10;;
13951;SDS011;39535;52.192;9.886;2023-01-28T08:53:11;1.17;;;0.93;;
13951;SDS011;39535;52.192;9.886;2023-01-28T08:55:40;1.17;;;0.80;;
13951;SDS011;39535;52.192;9.886;2023-01-28T08:58:09;3.27;;;1.10;;
13951;SDS011;39535;52.192;9.886;2023-01-28T09:00:36;1.50;;;1.23;;
13951;SDS011;39535;52.192;9.886;2023-01-28T09:03:03;1.30;;;1.20;;
13951;SDS011;39535;52.192;9.886;2023-01-28T09:05:30;1.40;;;0.90;;
13951;SDS011;39535;52.192;9.886;2023-01-28T09:07:59;1.33;;;1.27;;
13951;SDS011;39535;52.192;9.886;2023-01-28T09:10:26;1.07;;;1.00;;
13951;SDS011;39535;52.192;9.886;2023-01-28T09:12:53;1.07;;;0.83;;
13951;SDS011;39535;52.192;9.886;2023-01-28T09:15:20;1.03;;;0.83;;
13951;SDS011;39535;52.192;9.886;2023-01-28T09:17:46;1.13;;;0.80;;
13951;SDS011;39535;52.192;9.886;2023-01-28T09:20:12;3.07;;;1.30;;
13951;SDS011;39535;52.192;9.886;2023-01-28T09:22:39;1.83;;;1.20;;
13951;SDS011;39535;52.192;9.886;2023-01-28T09:25:05;3.57;;;1.70;;
13951;SDS011;39535;52.192;9.886;2023-01-28T09:27:32;1.00;;;1.00;;
13951;SDS011;39535;52.192;9.886;2023-01-28T09:30:00;1.50;;;1.10;;
13951;SDS011;39535;52.192;9.886;2023-01-28T09:32:26;2.47;;;1.10;;
13951;SDS011;39535;52.192;9.886;2023-01-28T09:34:53;1.63;;;1.30;;
13951;SDS011;39535;52.192;9.886;2023-01-28T09:37:19;1.43;;;1.03;;
13951;SDS011;39535;52.192;9.886;2023-01-28T09:39:45;3.83;;;1.43;;
13951;SDS011;39535;52.192;9.886;2023-01-28T09:42:16;2.53;;;2.30;;
13951;SDS011;39535;52.192;9.886;2023-01-28T09:45:07;1.30;;;1.10;;
13951;SDS011;39535;52.192;9.886;2023-01-28T09:47:40;1.80;;;1.30;;
13951;SDS011;39535;52.192;9.886;2023-01-28T09:50:11;1.33;;;1.20;;
13951;SDS011;39535;52.192;9.886;2023-01-28T09:52:41;1.50;;;1.40;;
13951;SDS011;39535;52.192;9.886;2023-01-28T09:55:11;2.33;;;1.37;;
13951;SDS011;39535;52.192;9.886;2023-01-28T09:57:44;2.37;;;1.40;;
13951;SDS011;39535;52.192;9.886;2023-01-28T10:00:17;1.47;;;1.20;;
13951;SDS011;39535;52.192;9.886;2023-01-28T10:05:39;1.93;;;1.53;;
13951;SDS011;39535;52.192;9.886;2023-01-28T10:08:18;1.83;;;1.67;;
13951;SDS011;39535;52.192;9.886;2023-01-28T10:10:54;2.23;;;2.07;;
13951;SDS011;39535;52.192;9.886;2023-01-28T10:13:27;3.53;;;2.60;;
13951;SDS011;39535;52.192;9.886;2023-01-28T10:16:10;3.23;;;1.50;;
13951;SDS011;39535;52.192;9.886;2023-01-28T10:18:49;2.30;;;1.77;;
13951;SDS011;39535;52.192;9.886;2023-01-28T10:21:19;3.27;;;2.93;;
13951;SDS011;39535;52.192;9.886;2023-01-28T10:23:53;2.00;;;1.90;;
13951;SDS011;39535;52.192;9.886;2023-01-28T10:26:25;2.63;;;1.83;;
13951;SDS011;39535;52.192;9.886;2023-01-28T10:28:59;2.33;;;1.80;;
13951;SDS011;39535;52.192;9.886;2023-01-28T10:31:32;8.20;;;6.27;;
13951;SDS011;39535;52.192;9.886;2023-01-28T10:34:02;4.37;;;3.00;;
13951;SDS011;39535;52.192;9.886;2023-01-28T10:36:29;1.97;;;1.60;;
13951;SDS011;39535;52.192;9.886;2023-01-28T10:38:56;1.97;;;1.67;;
13951;SDS011;39535;52.192;9.886;2023-01-28T10:41:23;1.77;;;1.60;;
13951;SDS011;39535;52.192;9.886;2023-01-28T10:43:50;2.83;;;1.83;;
13951;SDS011;39535;52.192;9.886;2023-01-28T10:46:18;2.90;;;2.27;;
13951;SDS011;39535;52.192;9.886;2023-01-28T10:48:52;2.67;;;2.27;;
13951;SDS011;39535;52.192;9.886;2023-01-28T10:51:29;3.10;;;1.90;;
13951;SDS011;39535;52.192;9.886;2023-01-28T10:53:56;4.23;;;1.93;;
13951;SDS011;39535;52.192;9.886;2023-01-28T10:56:23;2.57;;;2.37;;
13951;SDS011;39535;52.192;9.886;2023-01-28T10:58:53;2.20;;;1.93;;
13951;SDS011;39535;52.192;9.886;2023-01-28T11:01:24;2.50;;;2.20;;
13951;SDS011;39535;52.192;9.886;2023-01-28T11:04:04;2.70;;;2.50;;
13951;SDS011;39535;52.192;9.886;2023-01-28T11:06:31;2.40;;;2.20;;
13951;SDS011;39535;52.192;9.886;2023-01-28T11:08:57;2.03;;;1.83;;
13951;SDS011;39535;52.192;9.886;2023-01-28T11:11:24;2.33;;;1.97;;
13951;SDS011;39535;52.192;9.886;2023-01-28T11:13:52;2.23;;;2.10;;
13951;SDS011;39535;52.192;9.886;2023-01-28T11:16:22;3.13;;;2.57;;
13951;SDS011;39535;52.192;9.886;2023-01-28T11:18:51;2.40;;;2.20;;
13951;SDS011;39535;52.192;9.886;2023-01-28T11:21:21;2.37;;;2.17;;
13951;SDS011;39535;52.192;9.886;2023-01-28T11:23:50;2.70;;;2.33;;
13951;SDS011;39535;52.192;9.886;2023-01-28T11:26:18;2.97;;;2.40;;
13951;SDS011;39535;52.192;9.886;2023-01-28T11:28:48;3.37;;;2.67;;
13951;SDS011;39535;52.192;9.886;2023-01-28T11:31:16;2.50;;;2.30;;
13951;SDS011;39535;52.192;9.886;2023-01-28T11:33:44;2.40;;;2.20;;
13951;SDS011;39535;52.192;9.886;2023-01-28T11:36:16;2.87;;;2.60;;
13951;SDS011;39535;52.192;9.886;2023-01-28T11:38:52;3.10;;;2.90;;
13951;SDS011;39535;52.192;9.886;2023-01-28T11:41:22;3.40;;;3.03;;
13951;SDS011;39535;52.192;9.886;2023-01-28T11:43:52;4.17;;;3.87;;
13951;SDS011;39535;52.192;9.886;2023-01-28T11:46:28;3.87;;;3.57;;
13951;SDS011;39535;52.192;9.886;2023-01-28T11:49:13;6.33;;;5.90;;
13951;SDS011;39535;52.192;9.886;2023-01-28T11:51:51;5.50;;;5.10;;
13951;SDS011;39535;52.192;9.886;2023-01-28T11:54:28;3.13;;;2.83;;
13951;SDS011;39535;52.192;9.886;2023-01-28T11:57:13;3.93;;;3.17;;
13951;SDS011;39535;52.192;9.886;2023-01-28T11:59:55;8.13;;;4.90;;
13951;SDS011;39535;52.192;9.886;2023-01-28T12:02:44;5.83;;;5.33;;
13951;SDS011;39535;52.192;9.886;2023-01-28T12:05:20;4.97;;;4.47;;
13951;SDS011;39535;52.192;9.886;2023-01-28T12:08:02;2.77;;;2.50;;
13951;SDS011;39535;52.192;9.886;2023-01-28T12:10:37;5.37;;;3.00;;
13951;SDS011;39535;52.192;9.886;2023-01-28T12:13:20;3.20;;;2.90;;
13951;SDS011;39535;52.192;9.886;2023-01-28T12:21:49;4.10;;;3.70;;
13951;SDS011;39535;52.192;9.886;2023-01-28T12:24:31;4.77;;;3.60;;
13951;SDS011;39535;52.192;9.886;2023-01-28T12:27:10;3.93;;;3.60;;
13951;SDS011;39535;52.192;9.886;2023-01-28T12:29:51;3.60;;;3.30;;
13951;SDS011;39535;52.192;9.886;2023-01-28T12:32:30;4.00;;;3.67;;
13951;SDS011;39535;52.192;9.886;2023-01-28T12:35:13;3.33;;;3.13;;
13951;SDS011;39535;52.192;9.886;2023-01-28T12:37:52;3.80;;;3.50;;
13951;SDS011;39535;52.192;9.886;2023-01-28T12:40:32;3.93;;;3.63;;
13951;SDS011;39535;52.192;9.886;2023-01-28T12:43:12;3.23;;;3.03;;
13951;SDS011;39535;52.192;9.886;2023-01-28T12:45:44;4.87;;;3.43;;
13951;SDS011;39535;52.192;9.886;2023-01-28T12:48:15;5.57;;;5.07;;
13951;SDS011;39535;52.192;9.886;2023-01-28T12:50:48;6.67;;;5.80;;
13951;SDS011;39535;52.192;9.886;2023-01-28T12:53:21;3.83;;;3.53;;
13951;SDS011;39535;52.192;9.886;2023-01-28T12:55:53;4.27;;;3.97;;
13951;SDS011;39535;52.192;9.886;2023-01-28T12:58:29;4.37;;;3.67;;
13951;SDS011;39535;52.192;9.886;2023-01-28T13:01:03;4.00;;;3.73;;
13951;SDS011;39535;52.192;9.886;2023-01-28T13:03:34;3.77;;;3.47;;
13951;SDS011;39535;52.192;9.886;2023-01-28T13:06:07;3.87;;;3.57;;
13951;SDS011;39535;52.192;9.886;2023-01-28T13:08:37;4.20;;;3.90;;
13951;SDS011;39535;52.192;9.886;2023-01-28T13:11:03;3.53;;;3.30;;
13951;SDS011;39535;52.192;9.886;2023-01-28T13:13:33;3.83;;;3.63;;
13951;SDS011;39535;52.192;9.886;2023-01-28T13:16:01;4.97;;;4.53;;
13951;SDS011;39535;52.192;9.886;2023-01-28T13:18:31;4.73;;;3.90;;
13951;SDS011;39535;52.192;9.886;2023-01-28T13:21:00;3.77;;;3.57;;
13951;SDS011;39535;52.192;9.886;2023-01-28T13:23:35;4.00;;;3.70;;
13951;SDS011;39535;52.192;9.886;2023-01-28T13:26:07;3.93;;;3.43;;
13951;SDS011;39535;52.192;9.886;2023-01-28T13:28:38;4.50;;;4.10;;
13951;SDS011;39535;52.192;9.886;2023-01-28T13:31:05;3.80;;;3.50;;
13951;SDS011;39535;52.192;9.886;2023-01-28T13:33:33;3.90;;;3.57;;
13951;SDS011;39535;52.192;9.886;2023-01-28T13:36:02;3.57;;;3.33;;
13951;SDS011;39535;52.192;9.886;2023-01-28T13:38:35;3.80;;;3.40;;
13951;SDS011;39535;52.192;9.886;2023-01-28T13:41:02;4.53;;;4.13;;
13951;SDS011;39535;52.192;9.886;2023-01-28T13:43:38;4.63;;;4.20;;
13951;SDS011;39535;52.192;9.886;2023-01-28T13:46:07;4.17;;;3.87;;
13951;SDS011;39535;52.192;9.886;2023-01-28T13:48:38;5.87;;;4.40;;
13951;SDS011;39535;52.192;9.886;2023-01-28T13:51:16;7.03;;;4.50;;
13951;SDS011;39535;52.192;9.886;2023-01-28T13:53:46;15.00;;;11.03;;
13951;SDS011;39535;52.192;9.886;2023-01-28T13:56:19;4.60;;;4.27;;
13951;SDS011;39535;52.192;9.886;2023-01-28T14:05:07;4.10;;;3.80;;
13951;SDS011;39535;52.192;9.886;2023-01-28T14:11:00;3.37;;;3.07;;
13951;SDS011;39535;52.192;9.886;2023-01-28T14:13:38;2.77;;;2.57;;
13951;SDS011;39535;52.192;9.886;2023-01-28T14:19:16;3.23;;;2.93;;
13951;SDS011;39535;52.192;9.886;2023-01-28T14:21:47;2.87;;;2.50;;
13951;SDS011;39535;52.192;9.886;2023-01-28T14:24:14;2.57;;;2.37;;
13951;SDS011;39535;52.192;9.886;2023-01-28T14:26:45;2.90;;;2.63;;
13951;SDS011;39535;52.192;9.886;2023-01-28T14:29:21;3.03;;;2.80;;
13951;SDS011;39535;52.192;9.886;2023-01-28T14:31:53;3.13;;;2.83;;
13951;SDS011;39535;52.192;9.886;2023-01-28T14:34:22;2.73;;;2.53;;
13951;SDS011;39535;52.192;9.886;2023-01-28T14:36:53;3.10;;;2.80;;
13951;SDS011;39535;52.192;9.886;2023-01-28T14:39:24;4.73;;;2.97;;
13951;SDS011;39535;52.192;9.886;2023-01-28T14:41:53;2.90;;;2.60;;
13951;SDS011;39535;52.192;9.886;2023-01-28T14:44:25;2.80;;;2.60;;
13951;SDS011;39535;52.192;9.886;2023-01-28T14:47:08;3.10;;;2.70;;
13951;SDS011;39535;52.192;9.886;2023-01-28T14:49:48;6.43;;;2.63;;
13951;SDS011;39535;52.192;9.886;2023-01-28T14:52:34;3.00;;;2.70;;
13951;SDS011;39535;52.192;9.886;2023-01-28T14:55:17;2.90;;;2.70;;
13951;SDS011;39535;52.192;9.886;2023-01-28T14:57:55;3.60;;;2.47;;
13951;SDS011;39535;52.192;9.886;2023-01-28T15:00:25;2.60;;;2.40;;
13951;SDS011;39535;52.192;9.886;2023-01-28T15:02:54;2.80;;;2.60;;
13951;SDS011;39535;52.192;9.886;2023-01-28T15:05:21;2.73;;;2.53;;
13951;SDS011;39535;52.192;9.886;2023-01-28T15:07:49;3.43;;;3.13;;
13951;SDS011;39535;52.192;9.886;2023-01-28T15:10:17;3.63;;;3.30;;
13951;SDS011;39535;52.192;9.886;2023-01-28T15:12:47;3.40;;;3.10;;
13951;SDS011;39535;52.192;9.886;2023-01-28T15:15:19;3.30;;;3.00;;
13951;SDS011;39535;52.192;9.886;2023-01-28T15:21:11;3.03;;;2.83;;
13951;SDS011;39535;52.192;9.886;2023-01-28T15:23:39;4.13;;;2.57;;
13951;SDS011;39535;52.192;9.886;2023-01-28T15:26:08;2.67;;;2.30;;
13951;SDS011;39535;52.192;9.886;2023-01-28T15:28:38;3.43;;;2.27;;
13951;SDS011;39535;52.192;9.886;2023-01-28T15:31:05;2.33;;;2.17;;
13951;SDS011;39535;52.192;9.886;2023-01-28T15:33:32;3.20;;;2.60;;
13951;SDS011;39535;52.192;9.886;2023-01-28T15:35:58;3.40;;;2.83;;